This is the latest recevied weather packets stored in our database for station/object IK1YPD-13. If no packets are shown the sender has not sent any weather packets the latest 10 day(s).
| Time | Temp. | Humidity | Pressure | Rain* | Wind** | Luminosity | Snow |
|---|---|---|---|---|---|---|---|
| 1787761341 | 27.78° C | 70% | 1012 hPa | - | - | - | - |
| 1787760441 | 27.78° C | 73% | 1011 hPa | - | - | - | - |
| 1787759541 | 27.78° C | 71% | 1012 hPa | - | - | - | - |
| 1787758641 | 27.22° C | 70% | 1012 hPa | - | - | - | - |
| 1787757741 | 27.78° C | 70% | 1013 hPa | - | - | - | - |
| 1787756841 | 28.33° C | 69% | 1013 hPa | - | - | - | - |
| 1787755941 | 27.78° C | 71% | 1013 hPa | - | - | - | - |
| 1787755041 | 27.22° C | 77% | 1013 hPa | - | - | - | - |
| 1787754141 | 27.22° C | 75% | 1013 hPa | - | - | - | - |
| 1787753241 | 27.78° C | 75% | 1013 hPa | - | - | - | - |
| 1787752340 | 27.78° C | 73% | 1013 hPa | - | - | - | - |
| 1787751440 | 27.22° C | 72% | 1013 hPa | - | - | - | - |
| 1787750540 | 27.78° C | 68% | 1012 hPa | - | - | - | - |
| 1787749640 | 28.33° C | 68% | 1013 hPa | - | - | - | - |
| 1787748740 | 29.44° C | 59% | 1013 hPa | - | - | - | - |
| 1787747840 | 29.44° C | 59% | 1013 hPa | - | - | - | - |
| 1787746940 | 28.89° C | 61% | 1013 hPa | - | - | - | - |
| 1787746040 | 28.33° C | 61% | 1013 hPa | - | - | - | - |
| 1787745140 | 28.33° C | 61% | 1013 hPa | - | - | - | - |
| 1787744240 | 28.33° C | 60% | 1013 hPa | - | - | - | - |
| 1787743340 | 29.44° C | 57% | 1013 hPa | - | - | - | - |
| 1787742440 | 28.33° C | 59% | 1013 hPa | - | - | - | - |
| 1787741540 | 28.33° C | 60% | 1013 hPa | - | - | - | - |
| 1787740640 | 28.33° C | 59% | 1013 hPa | - | - | - | - |
| 1787739740 | 28.89° C | 59% | 1013 hPa | - | - | - | - |
* Rain since midnight (hover to see other rain measurements)
** Current wind speed in m/s (hover to see current wind gust speed)